METAR Data
IDs: Format: Raw Decoded Include TAF

Data at: 0951 UTC 10 Dec 2022

KBEH 100909Z AUTO 09008KT 5SM BR FEW008 OVC040 01/M01 A3024 RMK AO2 T00111006
KBEH 100853Z AUTO 09009KT 6SM BR OVC039 01/M01 A3024 RMK AO2 SLP247 T00111006 58002
KBEH 100753Z AUTO 09007KT 5SM BR OVC037 01/M01 A3025 RMK AO2 SLP251 T00111006
KBEH 100653Z AUTO 09007KT 6SM BR SCT011 OVC036 01/M01 A3025 RMK AO2 SLP249 T00111011
KBEH 100649Z AUTO 08008KT 6SM BR SCT011 OVC036 01/M01 A3025 RMK AO2
KBEH 100553Z AUTO 09006KT 6SM BR BKN010 OVC035 01/M01 A3024 RMK AO2 SLP247 T00111011 10011 20011 50004
KBEH 100453Z AUTO 10011KT 6SM BR OVC033 01/M01 A3025 RMK AO2 SLP248 T00111011 400111017
KBEH 100420Z AUTO 10010KT 6SM BR SCT012 OVC032 01/M01 A3024 RMK AO2 T00111011
KBEH 100353Z AUTO 07009G17KT 6SM BR OVC011 01/M01 A3024 RMK AO2 SLP246 T00111006
KBEH 100306Z AUTO 08008KT 6SM BR BKN011 OVC040 01/M01 A3023 RMK AO2 T00111006
KBEH 100258Z AUTO 08009KT 6SM BR BKN009 OVC040 01/M01 A3023 RMK AO2 CIG 008V015 T00111006
KBEH 100253Z AUTO 08008G18KT 6SM BR BKN012 OVC040 01/M01 A3023 RMK AO2 SLP243 T00111006 51004
KBEH 100153Z AUTO 08009KT 6SM BR BKN010 OVC039 01/M01 A3023 RMK AO2 CIG 008V014 SLP243 T00111006
KBEH 100053Z AUTO 08009KT 4SM BR BKN007 OVC040 01/M01 A3022 RMK AO2 SLP241 T00111006
KBEH 100016Z AUTO 09010KT 4SM BR BKN008 OVC013 01/M01 A3022 RMK AO2 T00111006
KBEH 092353Z AUTO 08009KT 5SM BR OVC012 01/M01 A3022 RMK AO2 SLP239 60015 T00111006 10011 20006 53016
KBEH 092318Z AUTO 08009KT 5SM BR BKN010 BKN013 OVC031 01/M01 A3021 RMK AO2 CIG 007V012 T00111006
KBEH 092253Z AUTO 08007KT 4SM BR BKN008 BKN011 OVC030 01/M01 A3020 RMK AO2 SLP233 T00111006
KBEH 092227Z AUTO 09007KT 3SM BR BKN008 OVC032 01/M01 A3019 RMK AO2 CIG 006V011 T00111006
KBEH 092200Z AUTO 08013G20KT 2SM BR BKN007 OVC033 01/M01 A3018 RMK AO2 CIG 005V012 T00111006
KBEH 092153Z AUTO 08010G20KT 1 3/4SM BR SCT007 OVC033 01/M01 A3018 RMK AO2 SLP227 T00111006
KBEH 092117Z AUTO 08012G20KT 1 1/2SM BR SCT007 OVC031 01/M01 A3017 RMK AO2 T00111006
KBEH 092107Z AUTO 08013G22KT 1 1/4SM BR SCT007 OVC031 01/M01 A3017 RMK AO2 T00111006
KBEH 092053Z AUTO 08012KT 1 1/2SM BR SCT008 OVC033 01/M01 A3017 RMK AO2 UPB04E06SNE04B06E30 SLP222 P0001 60015 T00111006 55005
KBEH 092034Z AUTO 08012G23KT 2SM BR SCT008 OVC037 01/M01 A3016 RMK AO2 UPB04E06SNE04B06E30 P0001 T00111006
KBEH 092026Z AUTO 08014G22KT 2SM -SN BR SCT008 BKN029 OVC039 01/M01 A3016 RMK AO2 UPB04E06SNE04B06 P0001 T00111006
KBEH 092021Z AUTO 08012G21KT 1 1/2SM -SN BR SCT008 SCT027 OVC039 01/M01 A3016 RMK AO2 UPB04E06SNE04B06 P0001 T00111006
KBEH 092013Z AUTO 08013G24KT 1SM -SN BR SCT008 BKN024 OVC039 01/M01 A3016 RMK AO2 UPB04E06SNE04B06 P0001 T00061006
KBEH 091953Z AUTO 08014G21KT 1 1/4SM -SN BR BKN008 OVC029 01/M01 A3016 RMK AO2 RAB28E34B39E43UPB34E39SNE28B43 SLP220 P0008 T00061006
KBEH 091951Z AUTO 08014G21KT 1 1/2SM -SN BR SCT008 OVC030 01/M01 A3016 RMK AO2 RAB28E34B39E43UPB34E39SNE28B43 P0008
KBEH 091937Z AUTO 07012G24KT 2 1/2SM UP BR SCT006 OVC030 01/M01 A3016 RMK AO2 RAB28E34UPB34SNE28 P0006 T00061011
KBEH 091927Z AUTO 07011G22KT 1 1/2SM -SN BR SCT006 OVC030 01/M01 A3016 RMK AO2 P0006 T00061006
KBEH 091925Z AUTO 07014G22KT 1 1/4SM -SN BR SCT006 OVC029 01/M01 A3016 RMK AO2 P0006 T00061006
KBEH 091912Z AUTO 06012G19KT 3/4SM -SN BR SCT006 OVC015 01/M01 A3017 RMK AO2 P0004 T00061006
KBEH 091906Z AUTO 07011G19KT 1/2SM SN FG FEW004 OVC011 01/M01 A3017 RMK AO2 P0003 T00061006
KBEH 091853Z AUTO 06010KT 1/4SM SN FG VV006 01/M01 A3018 RMK AO2 SLP228 P0006 T00061006
KBEH 091844Z AUTO 07010KT 1/4SM +SN FG VV007 01/M01 A3019 RMK AO2 P0005 T00061006
KBEH 091836Z AUTO 07010KT 1/4SM +SN FG SCT006 OVC010 01/M01 A3020 RMK AO2 P0003 T00061011
KBEH 091826Z AUTO 07010G17KT 1/2SM SN FG SCT007 OVC016 01/M01 A3020 RMK AO2 P0002 T00061011
KBEH 091816Z AUTO 07009KT 1SM -SN BR BKN007 OVC018 01/M01 A3019 RMK AO2 P0001 T00061011
KBEH 091812Z AUTO 07011KT 3/4SM -SN BR SCT005 OVC018 01/M01 A3019 RMK AO2 P0001 T00061011
KBEH 091800Z AUTO 07011G18KT 1/2SM SN FG FEW005 OVC014 01/M01 A3019 RMK AO2 P0000 T00061011
KBEH 091753Z AUTO 08011G19KT 1/4SM +SN FG FEW005 OVC014 01/M01 A3019 RMK AO2 SLP231 P0005 60005 T00061011 10011 20000 58013
KBEH 091747Z AUTO 07009KT 1/4SM +SN FG FEW005 OVC014 01/M01 A3019 RMK AO2 P0005
KBEH 091736Z AUTO 08009KT 1/4SM +SN FG VV017 01/M01 A3020 RMK AO2 P0004 T00061011
KBEH 091725Z AUTO 08010KT 1/2SM SN FG OVC022 01/M01 A3021 RMK AO2 P0002 T00061011
KBEH 091715Z AUTO 08010KT 1SM -SN BR OVC026 01/M02 A3021 RMK AO2 P0002 T00061017
KBEH 091657Z AUTO 06008KT 3/4SM -SN FEW019 OVC024 01/M02 A3022 RMK AO2 P0000 T00111017
KBEH 091653Z AUTO 07008KT 1 1/2SM -SN FEW019 OVC026 01/M02 A3022 RMK AO2 SNB1558 SLP242 P0000 T00111017
KBEH 091649Z AUTO 08009KT 2 1/2SM -SN FEW019 OVC028 01/M02 A3023 RMK AO2 VIS 1 3/4V4 SNB1558 P0000
KBEH 091553Z AUTO 08009KT 10SM FEW021 OVC045 01/M02 A3023 RMK AO2 SLP244 T00111022
KBEH 091541Z AUTO 09008G20KT 10SM SCT021 OVC055 01/M02 A3023 RMK AO2 T00111022
KBEH 091453Z AUTO 10013KT 10SM OVC020 01/M02 A3023 RMK AO2 SLP244 T00111022 55002
KBEH 091353Z AUTO 09015G24KT 10SM OVC017 01/M03 A3022 RMK AO2 SLP239 T00061028
KBEH 091322Z AUTO 09015G23KT 10SM BKN018 OVC095 01/M03 A3022 RMK AO2 T00061028
KBEH 091253Z AUTO 10013KT 10SM FEW018 BKN100 OVC110 00/M03 A3023 RMK AO2 SLP243 T00001028 $
KBEH 091153Z AUTO 10013KT 10SM SCT120 00/M02 A3023 RMK AO2 SLP244 T00001022 10000 21017 56015 $
KBEH 091053Z AUTO 08010KT 7SM SCT110 M01/M03 A3025 RMK AO2 SLP248 T10111028 $
KBEH 090953Z AUTO 08008KT 6SM BR CLR M02/M03 A3026 RMK AO2 SLP254 T10171033 $
KBEH 090853Z AUTO 07007KT 7SM CLR M02/M03 A3028 RMK AO2 SLP260 T10171033 $
KBEH 090753Z AUTO 08006KT 8SM M02/M03 A3030 RMK AO2 SLP266 T10171033 $
KBEH 090653Z AUTO 08007KT 9SM CLR M02/M03 A3029 RMK AO2 SLP265 T10171033
KBEH 090553Z AUTO 08008KT 10SM CLR M01/M03 A3031 RMK AO2 SLP271 T10111033 10017 21011 56008
KBEH 090453Z AUTO 07006KT 10SM CLR M01/M03 A3032 RMK AO2 SLP274 T10111033 400441011
KBEH 090353Z AUTO 07007KT 10SM CLR M01/M03 A3032 RMK AO2 SLP274 T10061033
KBEH 090253Z AUTO 07006KT 10SM CLR M01/M03 A3034 RMK AO2 SLP279 T10061033 58004
KBEH 090153Z AUTO 06004KT 10SM CLR M01/M03 A3034 RMK AO2 SLP282 T10061033
KBEH 090053Z AUTO 05003KT 10SM CLR 00/M03 A3034 RMK AO2 SLP282 T00001033
KBEH 082353Z AUTO 05003KT 10SM CLR 02/M03 A3035 RMK AO2 SLP283 T00171028 10044 20017 51006
KBEH 082253Z AUTO 00000KT 10SM CLR 03/M03 A3035 RMK AO2 SLP281 T00281028
KBEH 082153Z AUTO 05005KT 10SM CLR 04/M02 A3034 RMK AO2 SLP278 T00391022